createdAt,value
2019-05-21T00:02:28.476Z,101234.48
2019-05-21T00:04:57.042Z,101229.00
2019-05-21T00:07:25.577Z,101235.92
2019-05-21T00:09:54.210Z,101235.36
2019-05-21T00:12:22.794Z,101232.91
2019-05-21T00:14:51.384Z,101231.59
2019-05-21T00:17:20.068Z,101234.80
2019-05-21T00:19:48.654Z,101241.00
2019-05-21T00:22:17.131Z,101245.20
2019-05-21T00:24:45.821Z,101254.32
2019-05-21T00:27:14.358Z,101243.68
2019-05-21T00:30:19.048Z,101248.20
2019-05-21T00:33:23.929Z,101236.45
2019-05-21T00:36:30.210Z,101242.25
2019-05-21T00:39:34.629Z,101247.60
2019-05-21T00:42:02.577Z,101243.76
2019-05-21T00:44:33.823Z,101239.06
2019-05-21T00:47:02.487Z,101238.92
2019-05-21T00:49:31.068Z,101237.72
2019-05-21T00:52:08.139Z,101239.88
2019-05-21T00:54:29.840Z,101238.81
2019-05-21T00:56:58.368Z,101233.92
2019-05-21T00:59:26.870Z,101236.83
2019-05-21T01:01:55.376Z,101229.69
2019-05-21T01:04:23.864Z,101233.78
2019-05-21T01:06:52.337Z,101238.38
2019-05-21T01:09:20.954Z,101236.87
2019-05-21T01:11:49.473Z,101240.25
2019-05-21T01:14:18.071Z,101238.52
2019-05-21T01:16:46.544Z,101245.47
2019-05-21T01:19:15.025Z,101246.67
2019-05-21T01:21:43.568Z,101247.63
2019-05-21T01:24:12.189Z,101247.80
2019-05-21T01:26:40.681Z,101247.77
2019-05-21T01:29:09.254Z,101251.15
2019-05-21T01:31:37.740Z,101247.11
2019-05-21T01:34:06.256Z,101244.94
2019-05-21T01:36:34.819Z,101243.38
2019-05-21T01:39:04.619Z,101244.80
2019-05-21T01:41:33.307Z,101245.77
2019-05-21T01:44:01.853Z,101247.86
2019-05-21T01:46:30.339Z,101247.75
2019-05-21T01:48:58.842Z,101243.58
2019-05-21T01:51:27.358Z,101244.20
2019-05-21T01:53:55.869Z,101250.13
2019-05-21T01:56:24.443Z,101250.77
2019-05-21T01:58:53.007Z,101252.55
2019-05-21T02:01:21.491Z,101255.72
2019-05-21T02:03:50.075Z,101254.88
2019-05-21T02:06:18.554Z,101259.30
2019-05-21T02:08:47.045Z,101258.27
2019-05-21T02:11:15.617Z,101253.91
2019-05-21T02:13:44.101Z,101261.00
2019-05-21T02:16:12.617Z,101264.02
2019-05-21T02:18:41.206Z,101257.72
2019-05-21T02:21:09.767Z,101252.94
2019-05-21T02:23:38.305Z,101257.43
2019-05-21T02:26:06.866Z,101252.30
2019-05-21T02:28:35.379Z,101255.23
2019-05-21T02:31:04.137Z,101254.02
2019-05-21T02:33:32.672Z,101249.62
2019-05-21T02:36:01.273Z,101254.54
2019-05-21T02:38:29.860Z,101259.16
2019-05-21T02:40:58.389Z,101257.91
2019-05-21T02:43:26.953Z,101267.01
2019-05-21T02:45:55.514Z,101263.91
2019-05-21T02:48:24.373Z,101260.26
2019-05-21T02:50:52.847Z,101258.67
2019-05-21T02:53:21.357Z,101254.71
2019-05-21T02:55:50.009Z,101252.34
2019-05-21T02:58:18.559Z,101248.33
2019-05-21T03:01:05.021Z,101247.41
2019-05-21T03:03:34.974Z,101249.47
2019-05-21T03:06:13.800Z,101260.81
2019-05-21T03:08:33.712Z,101254.19
2019-05-21T03:11:02.282Z,101252.59
2019-05-21T03:13:30.888Z,101257.15
2019-05-21T03:15:59.429Z,101260.28
2019-05-21T03:18:27.927Z,101255.57
2019-05-21T03:20:56.426Z,101263.33
2019-05-21T03:23:24.909Z,101269.41
2019-05-21T03:25:53.510Z,101262.44
2019-05-21T03:28:21.997Z,101271.80
2019-05-21T03:30:50.586Z,101267.82
2019-05-21T03:33:19.149Z,101272.54
2019-05-21T03:35:47.713Z,101273.42
2019-05-21T03:38:16.327Z,101278.21
2019-05-21T03:40:44.817Z,101283.38
2019-05-21T03:43:13.368Z,101284.80
2019-05-21T03:45:41.894Z,101283.49
2019-05-21T03:48:10.505Z,101290.28
2019-05-21T03:50:39.047Z,101298.41
2019-05-21T03:53:07.563Z,101306.09
2019-05-21T03:55:36.115Z,101301.19
2019-05-21T03:58:04.748Z,101313.23
2019-05-21T04:00:33.321Z,101308.44
2019-05-21T04:03:01.906Z,101319.13
2019-05-21T04:05:30.412Z,101318.92
2019-05-21T04:07:58.885Z,101325.03
2019-05-21T04:10:27.451Z,101332.61
2019-05-21T04:13:08.901Z,101331.16
2019-05-21T04:15:46.165Z,101329.27
2019-05-21T04:18:19.134Z,101333.96
2019-05-21T04:20:47.644Z,101338.56
2019-05-21T04:23:16.190Z,101336.61
2019-05-21T04:25:44.740Z,101332.17
2019-05-21T04:28:13.289Z,101339.47
2019-05-21T04:30:41.809Z,101337.42
2019-05-21T04:33:10.310Z,101339.35
2019-05-21T04:35:38.866Z,101347.85
2019-05-21T04:38:07.435Z,101352.55
2019-05-21T04:40:36.006Z,101354.27
2019-05-21T04:43:04.710Z,101350.23
2019-05-21T04:45:33.340Z,101352.45
2019-05-21T04:48:02.589Z,101354.22
2019-05-21T05:01:36.252Z,101358.48
2019-05-21T05:10:35.172Z,101363.41
2019-05-21T06:35:07.585Z,101408.97
2019-05-21T06:43:08.692Z,101408.03
2019-05-21T06:45:47.264Z,101405.30
2019-05-21T06:53:35.042Z,101409.44
2019-05-21T07:01:43.531Z,101429.23
2019-05-21T07:10:25.895Z,101432.31
2019-05-21T07:12:55.416Z,101441.53
2019-05-21T07:18:44.544Z,101427.89
2019-05-21T07:21:24.142Z,101431.52
2019-05-21T07:23:52.892Z,101441.25
2019-05-21T07:31:53.583Z,101459.54
2019-05-21T07:34:22.157Z,101459.80
2019-05-21T07:36:50.853Z,101460.17
2019-05-21T07:39:22.712Z,101465.80
2019-05-21T07:41:51.283Z,101454.51
2019-05-21T07:44:19.896Z,101455.30
2019-05-21T07:46:54.799Z,101461.20
2019-05-21T07:49:20.882Z,101460.45
2019-05-21T07:51:49.847Z,101463.34
2019-05-21T07:54:21.493Z,101460.66
2019-05-21T07:56:50.066Z,101466.52
2019-05-21T08:10:52.609Z,101467.23
2019-05-21T08:13:21.493Z,101470.71
2019-05-21T08:18:48.165Z,101469.31
2019-05-21T08:21:16.900Z,101477.31
2019-05-21T08:23:45.816Z,101479.73
2019-05-21T08:26:14.980Z,101474.86
2019-05-21T08:28:44.034Z,101478.17
2019-05-21T08:31:22.501Z,101487.47
2019-05-21T08:33:51.114Z,101486.17
2019-05-21T08:36:21.669Z,101490.08
2019-05-21T08:38:50.589Z,101491.28
2019-05-21T08:41:19.232Z,101492.23
2019-05-21T08:43:47.905Z,101500.14
2019-05-21T08:46:16.487Z,101501.92
2019-05-21T08:48:45.040Z,101503.28
2019-05-21T09:15:34.117Z,101527.56
2019-05-21T09:18:00.973Z,101526.23
2019-05-21T09:20:37.341Z,101531.90
2019-05-21T09:23:13.420Z,101528.59
2019-05-21T09:25:49.532Z,101532.94
2019-05-21T09:37:19.890Z,101547.92
2019-05-21T09:42:51.425Z,101555.98
2019-05-21T09:46:19.507Z,101561.20
2019-05-21T09:48:48.597Z,101567.79
2019-05-21T09:51:32.849Z,101569.34
2019-05-21T09:54:04.823Z,101573.73
2019-05-21T09:56:47.426Z,101570.33
2019-05-21T10:02:08.023Z,101558.43
2019-05-21T10:16:21.734Z,101568.25
2019-05-21T10:21:57.017Z,101579.80
2019-05-21T10:24:25.377Z,101577.62
2019-05-21T10:26:54.366Z,101576.81
2019-05-21T10:32:25.196Z,101580.25
2019-05-21T10:34:53.748Z,101587.36
2019-05-21T10:40:08.415Z,101583.64
2019-05-21T10:42:37.899Z,101587.73
2019-05-21T10:45:09.476Z,101592.06
2019-05-21T11:01:17.445Z,101605.23
2019-05-21T11:03:59.572Z,101609.63
2019-05-21T11:06:28.666Z,101600.43
2019-05-21T11:08:57.392Z,101607.11
2019-05-21T11:11:31.993Z,101612.18
2019-05-21T11:14:14.600Z,101612.03
2019-05-21T11:16:51.448Z,101613.33
2019-05-21T11:19:49.244Z,101612.50
2019-05-21T11:22:24.411Z,101612.30
2019-05-21T11:28:06.353Z,101619.48
2019-05-21T11:33:57.125Z,101612.73
2019-05-21T11:36:25.646Z,101609.83
2019-05-21T11:39:02.732Z,101614.62
2019-05-21T11:41:31.604Z,101616.41
2019-05-21T11:44:00.616Z,101614.13
2019-05-21T12:23:29.990Z,101627.95
2019-05-21T12:25:58.705Z,101626.34
2019-05-21T12:28:32.409Z,101624.03
2019-05-21T12:33:43.581Z,101626.63
2019-05-21T12:39:15.081Z,101627.91
2019-05-21T12:41:43.861Z,101628.39
2019-05-21T12:46:46.204Z,101637.47
2019-05-21T12:49:14.865Z,101635.59
2019-05-21T12:51:45.362Z,101643.07
2019-05-21T12:54:13.937Z,101639.02
2019-05-21T12:56:42.577Z,101643.08
2019-05-21T12:59:11.701Z,101639.59
2019-05-21T13:01:40.417Z,101643.79
2019-05-21T13:04:09.252Z,101649.23
2019-05-21T13:06:43.562Z,101648.44
2019-05-21T13:14:31.229Z,101662.97
2019-05-21T13:28:25.572Z,101675.14
2019-05-21T13:36:31.207Z,101680.50
2019-05-21T13:39:03.733Z,101686.16
2019-05-21T13:52:29.858Z,101684.07
2019-05-21T13:54:58.447Z,101678.06
2019-05-21T13:57:27.030Z,101687.34
2019-05-21T13:59:55.740Z,101687.19
2019-05-21T14:02:24.467Z,101688.38
2019-05-21T14:04:53.063Z,101683.06
2019-05-21T14:07:21.670Z,101685.17
2019-05-21T14:10:12.709Z,101684.77
2019-05-21T14:12:20.430Z,101695.94
2019-05-21T14:14:49.116Z,101696.45
2019-05-21T14:17:17.625Z,101700.87
2019-05-21T14:19:46.326Z,101710.50
2019-05-21T14:22:14.966Z,101712.64
2019-05-21T14:24:43.525Z,101707.67
2019-05-21T14:27:12.107Z,101715.28
2019-05-21T14:29:43.239Z,101712.70
2019-05-21T14:32:11.884Z,101709.89
2019-05-21T14:34:40.547Z,101722.95
2019-05-21T14:37:21.050Z,101716.75
2019-05-21T14:39:54.127Z,101722.48
2019-05-21T14:42:24.412Z,101714.48
2019-05-21T14:44:53.040Z,101717.18
2019-05-21T14:47:24.792Z,101714.45
2019-05-21T14:49:55.106Z,101707.96
2019-05-21T14:52:23.708Z,101711.38
2019-05-21T14:54:55.032Z,101720.30
2019-05-21T14:57:23.650Z,101719.57
2019-05-21T15:02:18.989Z,101721.33
2019-05-21T15:04:47.989Z,101724.11
2019-05-21T15:07:16.725Z,101730.11
2019-05-21T15:09:47.181Z,101726.13
2019-05-21T15:12:15.838Z,101730.35
2019-05-21T15:14:44.734Z,101729.82
2019-05-21T15:17:13.323Z,101731.23
2019-05-21T15:19:43.600Z,101733.86
2019-05-21T15:22:12.217Z,101738.22
2019-05-21T15:24:40.833Z,101740.11
2019-05-21T15:27:17.114Z,101732.63
2019-05-21T15:29:48.569Z,101745.37
2019-05-21T15:32:35.206Z,101740.39
2019-05-21T15:35:10.670Z,101746.50
2019-05-21T15:38:09.771Z,101758.20
2019-05-21T15:41:08.858Z,101764.58
2019-05-21T15:43:22.247Z,101767.57
2019-05-21T15:45:52.482Z,101779.05
2019-05-21T15:48:28.274Z,101763.80
2019-05-21T15:51:02.490Z,101760.78
2019-05-21T15:56:17.204Z,101765.34
2019-05-21T15:58:50.467Z,101756.98
2019-05-21T16:01:19.165Z,101758.38
2019-05-21T16:03:47.673Z,101757.17
2019-05-21T16:06:16.240Z,101764.33
2019-05-21T16:08:44.759Z,101763.62
2019-05-21T16:11:27.350Z,101765.41
2019-05-21T16:13:43.581Z,101767.08
2019-05-21T16:16:12.178Z,101766.02
2019-05-21T16:18:40.750Z,101767.73
2019-05-21T16:21:09.350Z,101765.85
2019-05-21T16:23:37.878Z,101771.91
2019-05-21T16:26:06.443Z,101770.97
2019-05-21T16:28:35.046Z,101769.59
2019-05-21T16:31:03.610Z,101770.09
2019-05-21T16:33:32.204Z,101779.17
2019-05-21T16:36:00.832Z,101773.92
2019-05-21T16:38:29.356Z,101777.38
2019-05-21T16:40:57.883Z,101774.48
2019-05-21T16:43:26.465Z,101777.65
2019-05-21T16:45:54.979Z,101783.19
2019-05-21T16:48:23.540Z,101780.53
2019-05-21T16:50:52.079Z,101779.58
2019-05-21T16:53:20.714Z,101782.07
2019-05-21T16:55:49.390Z,101782.53
2019-05-21T16:58:17.980Z,101782.45
2019-05-21T17:00:46.634Z,101782.02
2019-05-21T17:03:15.220Z,101782.58
2019-05-21T17:05:43.892Z,101789.77
2019-05-21T17:08:12.610Z,101783.00
2019-05-21T17:10:41.247Z,101788.31
2019-05-21T17:13:09.769Z,101788.48
2019-05-21T17:15:38.279Z,101788.02
2019-05-21T17:18:06.884Z,101783.32
2019-05-21T17:20:35.467Z,101794.02
2019-05-21T17:23:03.972Z,101789.20
2019-05-21T17:25:32.522Z,101787.81
2019-05-21T17:28:01.171Z,101792.36
2019-05-21T17:30:29.814Z,101793.54
2019-05-21T17:32:58.407Z,101803.95
2019-05-21T17:35:27.020Z,101802.62
2019-05-21T17:37:55.553Z,101805.72
2019-05-21T17:40:24.105Z,101807.20
2019-05-21T17:42:52.770Z,101808.88
2019-05-21T17:45:21.363Z,101812.77
2019-05-21T17:47:49.884Z,101817.27
2019-05-21T17:50:18.515Z,101815.88
2019-05-21T17:52:47.111Z,101821.41
2019-05-21T17:55:15.687Z,101813.80
2019-05-21T17:57:45.257Z,101819.81
2019-05-21T18:00:15.126Z,101811.52
2019-05-21T18:02:43.722Z,101814.86
2019-05-21T18:05:12.825Z,101822.78
2019-05-21T18:07:41.877Z,101815.19
2019-05-21T18:10:11.175Z,101816.13
2019-05-21T18:12:39.989Z,101820.46
2019-05-21T18:15:10.199Z,101824.73
2019-05-21T18:17:39.419Z,101822.63
2019-05-21T18:20:10.608Z,101830.31
2019-05-21T18:22:40.126Z,101830.16
2019-05-21T18:25:08.986Z,101827.72
2019-05-21T18:27:37.574Z,101831.94
2019-05-21T18:30:06.672Z,101834.39
2019-05-21T18:32:35.693Z,101838.77
2019-05-21T18:35:06.744Z,101845.81
2019-05-21T18:37:36.453Z,101849.00
2019-05-21T18:40:08.349Z,101851.38
2019-05-21T18:42:36.937Z,101854.36
2019-05-21T18:45:07.678Z,101848.75
2019-05-21T18:47:36.288Z,101856.16
2019-05-21T18:50:07.162Z,101845.61
2019-05-21T18:52:35.744Z,101851.30
2019-05-21T18:55:05.148Z,101860.31
2019-05-21T18:57:33.758Z,101861.70
2019-05-21T19:00:02.246Z,101862.83
2019-05-21T19:02:30.858Z,101866.52
2019-05-21T19:04:59.479Z,101864.17
2019-05-21T19:07:28.071Z,101869.74
2019-05-21T19:09:56.659Z,101873.17
2019-05-21T19:12:37.462Z,101874.20
2019-05-21T19:14:55.769Z,101880.84
2019-05-21T19:17:35.134Z,101881.14
2019-05-21T19:19:54.509Z,101878.20
2019-05-21T19:22:23.135Z,101881.36
2019-05-21T19:24:51.881Z,101887.70
2019-05-21T19:27:20.435Z,101882.34
2019-05-21T19:29:49.016Z,101882.02
2019-05-21T19:35:21.244Z,101892.18
2019-05-21T19:37:49.746Z,101886.29
2019-05-21T19:40:18.364Z,101890.66
2019-05-21T19:42:55.015Z,101892.74
2019-05-21T19:45:18.921Z,101899.92
2019-05-21T19:47:47.542Z,101902.20
2019-05-21T19:50:16.146Z,101899.16
2019-05-21T19:52:44.729Z,101899.83
2019-05-21T19:55:13.305Z,101903.06
2019-05-21T19:57:42.436Z,101903.27
2019-05-21T20:00:11.741Z,101903.58
2019-05-21T20:02:41.116Z,101900.17
2019-05-21T20:05:09.674Z,101901.72
2019-05-21T20:07:39.648Z,101904.90
2019-05-21T20:10:08.168Z,101909.67
2019-05-21T20:12:37.096Z,101913.06
2019-05-21T20:15:06.757Z,101915.67
2019-05-21T20:17:35.835Z,101916.94
2019-05-21T20:20:06.170Z,101915.80
2019-05-21T20:22:34.925Z,101913.09
2019-05-21T20:25:05.188Z,101918.37
2019-05-21T20:27:33.818Z,101922.04
2019-05-21T20:30:12.123Z,101921.56
2019-05-21T20:32:33.782Z,101925.00
2019-05-21T20:35:03.533Z,101922.98
2019-05-21T20:37:38.628Z,101925.72
2019-05-21T20:40:11.247Z,101925.97
2019-05-21T20:42:40.670Z,101926.27
2019-05-21T20:45:11.361Z,101919.83
2019-05-21T20:47:39.938Z,101921.67
2019-05-21T20:50:12.144Z,101916.09
2019-05-21T20:52:40.856Z,101914.14
2019-05-21T20:55:09.523Z,101916.72
2019-05-21T20:57:38.909Z,101912.34
2019-05-21T21:00:08.848Z,101919.44
2019-05-21T21:02:38.443Z,101921.69
2019-05-21T21:05:07.674Z,101926.12
2019-05-21T21:07:37.885Z,101925.24
2019-05-21T21:10:08.124Z,101921.18
2019-05-21T21:12:37.272Z,101923.42
2019-05-21T21:15:06.529Z,101928.22
2019-05-21T21:17:35.513Z,101924.17
2019-05-21T21:20:07.919Z,101930.52
2019-05-21T21:22:36.489Z,101927.96
2019-05-21T21:25:05.127Z,101930.77
2019-05-21T21:27:33.938Z,101931.41
2019-05-21T21:30:02.748Z,101936.59
2019-05-21T21:32:31.376Z,101937.50
2019-05-21T21:35:00.042Z,101933.12
2019-05-21T21:37:28.562Z,101938.94
2019-05-21T21:39:57.076Z,101941.92
2019-05-21T21:42:25.658Z,101945.30
2019-05-21T21:44:54.251Z,101948.77
2019-05-21T21:47:22.823Z,101950.91
2019-05-21T21:49:51.360Z,101947.45
2019-05-21T21:52:20.094Z,101950.09
2019-05-21T21:54:48.738Z,101947.55
2019-05-21T21:57:17.289Z,101945.13
2019-05-21T21:59:46.139Z,101946.84
2019-05-21T22:02:29.065Z,101947.98
2019-05-21T22:04:57.744Z,101949.02
2019-05-21T22:07:26.473Z,101945.59
2019-05-21T22:09:55.558Z,101948.72
2019-05-21T22:12:24.803Z,101946.97
2019-05-21T22:15:00.799Z,101951.33
2019-05-21T22:17:29.414Z,101953.86
2019-05-21T22:19:59.177Z,101955.59
2019-05-21T22:22:28.249Z,101956.54
2019-05-21T22:24:56.893Z,101952.39
2019-05-21T22:27:26.105Z,101954.34
2019-05-21T22:29:54.896Z,101952.94
2019-05-21T22:32:23.680Z,101962.07
2019-05-21T22:34:52.294Z,101955.11
2019-05-21T22:37:22.250Z,101955.09
2019-05-21T22:39:50.972Z,101956.07
2019-05-21T22:42:19.854Z,101957.35
2019-05-21T22:44:48.456Z,101962.13
2019-05-21T22:47:17.376Z,101959.87
2019-05-21T22:49:45.961Z,101957.66
2019-05-21T22:52:14.611Z,101956.36
2019-05-21T22:54:43.098Z,101952.30
2019-05-21T22:57:11.703Z,101955.23
2019-05-21T22:59:40.257Z,101956.13
2019-05-21T23:02:10.426Z,101959.34
2019-05-21T23:04:39.008Z,101958.52
2019-05-21T23:07:07.999Z,101957.55
2019-05-21T23:09:36.698Z,101966.38
2019-05-21T23:12:06.885Z,101962.16
2019-05-21T23:14:35.402Z,101957.56
2019-05-21T23:17:05.627Z,101959.45
2019-05-21T23:19:34.313Z,101960.23
2019-05-21T23:22:02.904Z,101957.01
2019-05-21T23:24:32.648Z,101963.11
2019-05-21T23:27:02.210Z,101960.08
2019-05-21T23:29:30.792Z,101961.41
2019-05-21T23:31:59.276Z,101960.48
2019-05-21T23:34:28.864Z,101959.16
2019-05-21T23:36:58.260Z,101956.07
2019-05-21T23:39:28.177Z,101961.09
2019-05-21T23:41:56.789Z,101956.15
2019-05-21T23:44:25.352Z,101958.31
2019-05-21T23:46:54.009Z,101963.84
2019-05-21T23:49:22.546Z,101958.14
2019-05-21T23:51:51.157Z,101950.86
2019-05-21T23:54:19.783Z,101958.48
2019-05-21T23:56:48.348Z,101952.20
2019-05-21T23:59:17.301Z,101960.84
